Time;durP1;ratioP1;P1;durP2;ratioP2;P2;SDS_P1;SDS_P2;PMS_P1;PMS_P2;Temp;Humidity;BMP_temperature;BMP_pressure;BME280_temperature;BME280_humidity;BME280_pressure;Samples;Min_cycle;Max_cycle;Signal;HPM_P1;HPM_P2
2022/11/14 00:00:33;;;;;;;18.30;12.50;;;6.60;39.10;;;;;;5058284;28;20949;-60
2022/11/14 00:03:01;;;;;;;18.30;12.27;;;6.60;39.20;;;;;;5063161;28;20483;-62
2022/11/14 00:05:27;;;;;;;19.67;12.90;;;6.60;39.30;;;;;;5060445;28;20634;-59
2022/11/14 00:07:55;;;;;;;18.80;12.50;;;6.60;39.30;;;;;;5060264;28;20482;-60
2022/11/14 00:10:22;;;;;;;17.03;13.00;;;6.60;39.20;;;;;;5059109;28;20489;-60
2022/11/14 00:12:49;;;;;;;19.70;12.47;;;6.60;39.10;;;;;;5063887;28;20457;-60
2022/11/14 00:15:16;;;;;;;21.23;13.70;;;6.60;39.20;;;;;;5058045;28;20485;-60
2022/11/14 00:17:43;;;;;;;18.40;12.37;;;6.60;39.30;;;;;;5064357;28;20484;-60
2022/11/14 00:20:11;;;;;;;22.10;14.50;;;6.60;39.40;;;;;;5063302;28;20491;-61
2022/11/14 00:22:38;;;;;;;18.03;12.20;;;6.60;39.40;;;;;;5073635;28;20540;-60
2022/11/14 00:25:07;;;;;;;24.87;17.10;;;6.60;39.50;;;;;;5063250;28;20476;-60
2022/11/14 00:27:34;;;;;;;26.63;17.97;;;6.60;39.50;;;;;;5067034;28;20483;-61
2022/11/14 00:30:01;;;;;;;22.13;14.87;;;6.60;39.40;;;;;;5060113;28;20481;-60
2022/11/14 00:32:28;;;;;;;21.80;15.07;;;6.60;39.40;;;;;;5062654;28;21000;-60
2022/11/14 00:34:55;;;;;;;21.77;14.13;;;6.70;39.60;;;;;;5055040;28;20461;-60
2022/11/14 00:37:21;;;;;;;24.40;16.27;;;6.70;39.40;;;;;;5061410;28;20953;-61
2022/11/14 00:39:48;;;;;;;26.60;17.40;;;6.70;39.50;;;;;;5068205;28;20484;-60
2022/11/14 00:42:16;;;;;;;24.73;15.37;;;6.70;39.60;;;;;;5051008;28;20481;-61
2022/11/14 00:44:43;;;;;;;25.53;15.80;;;6.70;39.70;;;;;;5050580;28;20469;-61
2022/11/14 00:47:10;;;;;;;24.80;17.10;;;6.70;39.60;;;;;;5050605;28;20528;-61
2022/11/14 00:49:36;;;;;;;26.63;14.90;;;6.80;39.70;;;;;;5059488;28;20476;-61
2022/11/14 00:52:03;;;;;;;22.70;16.80;;;6.80;39.80;;;;;;5058587;28;20842;-60
2022/11/14 00:54:30;;;;;;;24.37;15.37;;;6.80;39.70;;;;;;5061750;28;20459;-60
2022/11/14 00:56:57;;;;;;;23.87;15.83;;;6.80;39.80;;;;;;5050981;28;20635;-59
2022/11/14 00:59:25;;;;;;;19.87;12.47;;;6.70;40.00;;;;;;5063424;28;20560;-60
2022/11/14 01:01:52;;;;;;;21.07;15.17;;;6.80;40.00;;;;;;5053754;28;20809;-60
2022/11/14 01:04:19;;;;;;;23.73;14.60;;;6.70;40.10;;;;;;5053188;28;20481;-61
2022/11/14 01:06:45;;;;;;;23.53;15.77;;;6.70;40.30;;;;;;5059474;28;20450;-60
2022/11/14 01:09:12;;;;;;;22.50;16.47;;;6.70;40.40;;;;;;5054894;28;20489;-62
2022/11/14 01:11:39;;;;;;;25.10;16.60;;;6.70;40.30;;;;;;5062629;28;20476;-61
2022/11/14 01:14:07;;;;;;;29.00;17.30;;;6.70;40.40;;;;;;5060118;28;20468;-61
2022/11/14 01:16:35;;;;;;;28.87;17.80;;;6.70;40.50;;;;;;5059557;28;20489;-61
2022/11/14 01:19:02;;;;;;;23.60;15.93;;;6.70;40.70;;;;;;5053363;28;20477;-60
2022/11/14 01:21:28;;;;;;;20.80;13.50;;;6.70;40.70;;;;;;5061106;28;20455;-60
2022/11/14 01:23:55;;;;;;;22.00;13.50;;;6.80;40.50;;;;;;5056491;28;20476;-60
2022/11/14 01:26:22;;;;;;;20.33;13.23;;;6.80;40.50;;;;;;5058325;28;20460;-60
2022/11/14 01:28:49;;;;;;;22.63;14.70;;;6.70;40.70;;;;;;5061129;28;20488;-62
2022/11/14 01:31:18;;;;;;;19.60;12.37;;;6.70;40.70;;;;;;5061577;28;20474;-60
2022/11/14 01:33:49;;;;;;;20.50;13.63;;;6.80;40.50;;;;;;5065690;28;20456;-60
2022/11/14 01:36:15;;;;;;;21.00;13.73;;;6.70;40.90;;;;;;5062427;28;20464;-60
2022/11/14 01:38:42;;;;;;;23.27;13.77;;;6.70;40.70;;;;;;5062669;28;20461;-60
2022/11/14 01:41:11;;;;;;;20.13;12.80;;;6.80;40.50;;;;;;5061847;28;20477;-60
2022/11/14 01:43:39;;;;;;;18.40;13.00;;;6.70;40.90;;;;;;5064137;28;20458;-61
2022/11/14 01:46:09;;;;;;;21.50;15.00;;;6.70;41.20;;;;;;5063915;28;20483;-61
2022/11/14 01:48:40;;;;;;;21.67;13.70;;;6.70;41.20;;;;;;5065805;28;20480;-61
2022/11/14 01:51:21;;;;;;;18.60;12.20;;;6.70;41.30;;;;;;5066909;28;20475;-62
2022/11/14 01:53:50;;;;;;;19.80;13.20;;;6.70;41.30;;;;;;5062061;28;20456;-61
2022/11/14 01:56:28;;;;;;;21.23;13.10;;;6.70;41.20;;;;;;5065188;28;20941;-61
2022/11/14 01:59:00;;;;;;;20.77;13.43;;;6.60;41.40;;;;;;5068555;28;20480;-61
2022/11/14 02:01:28;;;;;;;19.67;12.67;;;6.70;41.60;;;;;;5058082;28;20866;-62
2022/11/14 02:03:57;;;;;;;21.60;14.10;;;6.60;41.70;;;;;;5060649;28;20468;-61
2022/11/14 02:06:28;;;;;;;20.77;13.43;;;6.60;41.70;;;;;;5062512;28;20457;-60
2022/11/14 02:08:57;;;;;;;19.43;13.23;;;6.70;41.50;;;;;;5060320;28;20480;-61
2022/11/14 02:11:24;;;;;;;21.77;12.67;;;6.70;41.70;;;;;;5064152;28;20476;-61
2022/11/14 02:13:51;;;;;;;18.43;12.27;;;6.70;41.80;;;;;;5064349;28;20453;-60
2022/11/14 02:16:18;;;;;;;16.10;11.47;;;6.70;41.90;;;;;;5066225;28;20448;-60
2022/11/14 02:18:44;;;;;;;22.20;14.10;;;6.70;41.90;;;;;;5059878;28;20450;-60
2022/11/14 02:21:13;;;;;;;21.27;12.93;;;6.70;41.90;;;;;;5060832;28;20468;-60
2022/11/14 02:23:39;;;;;;;23.03;14.33;;;6.80;41.70;;;;;;5053479;28;20462;-60
2022/11/14 02:26:06;;;;;;;20.57;12.77;;;6.80;41.60;;;;;;5055849;28;20457;-60
2022/11/14 02:28:33;;;;;;;21.10;12.17;;;6.80;41.40;;;;;;5065790;28;20480;-61
2022/11/14 02:31:00;;;;;;;19.80;12.37;;;6.80;41.20;;;;;;5063479;28;20482;-61
2022/11/14 02:33:26;;;;;;;17.13;11.77;;;6.90;41.20;;;;;;5062839;28;20457;-60
2022/11/14 02:35:53;;;;;;;22.40;12.90;;;6.90;41.20;;;;;;5059147;28;20468;-60
2022/11/14 02:38:21;;;;;;;19.10;13.13;;;6.90;40.90;;;;;;5065326;28;20460;-61
2022/11/14 02:40:48;;;;;;;21.53;14.27;;;6.80;41.40;;;;;;5064656;28;20481;-60
2022/11/14 02:43:15;;;;;;;20.60;13.70;;;6.80;41.40;;;;;;5065966;28;20797;-61
2022/11/14 02:45:42;;;;;;;21.47;13.10;;;6.90;41.50;;;;;;5060162;28;20457;-61
2022/11/14 02:48:08;;;;;;;22.27;13.57;;;6.80;41.50;;;;;;5066707;28;20506;-61
2022/11/14 02:50:35;;;;;;;18.23;11.90;;;6.80;41.50;;;;;;5066053;28;20787;-60
2022/11/14 02:53:02;;;;;;;20.57;13.47;;;6.80;41.90;;;;;;5065598;28;20961;-61
2022/11/14 02:55:30;;;;;;;23.50;15.00;;;6.80;41.90;;;;;;5058147;28;20464;-60
2022/11/14 02:57:57;;;;;;;19.23;13.33;;;6.80;41.90;;;;;;5058395;28;20541;-61
2022/11/14 03:00:23;;;;;;;22.17;13.80;;;6.80;41.90;;;;;;5056067;28;20481;-60
2022/11/14 03:02:52;;;;;;;20.70;13.97;;;6.80;42.00;;;;;;5056711;28;20458;-60
2022/11/14 03:05:19;;;;;;;19.50;13.00;;;6.70;42.10;;;;;;5052374;28;20824;-61
2022/11/14 03:07:46;;;;;;;21.70;13.70;;;6.70;42.30;;;;;;5065647;28;20481;-61
2022/11/14 03:10:13;;;;;;;20.50;13.77;;;6.70;42.30;;;;;;5060184;28;20564;-61
2022/11/14 03:12:41;;;;;;;21.37;14.13;;;6.70;42.50;;;;;;5060504;28;20469;-60
2022/11/14 03:15:09;;;;;;;21.77;14.27;;;6.70;42.50;;;;;;5061229;28;20461;-62
2022/11/14 03:17:36;;;;;;;28.10;15.63;;;6.70;42.50;;;;;;5066448;28;20461;-60
2022/11/14 03:20:03;;;;;;;22.50;14.07;;;6.70;42.50;;;;;;5062279;28;20837;-62
2022/11/14 03:22:30;;;;;;;27.90;15.20;;;6.70;42.50;;;;;;5066098;28;20461;-60
2022/11/14 03:24:56;;;;;;;25.50;14.87;;;6.70;42.40;;;;;;5063270;28;20457;-59
2022/11/14 03:27:23;;;;;;;23.20;15.50;;;6.70;42.70;;;;;;5064773;28;20955;-60
2022/11/14 03:29:51;;;;;;;24.97;14.90;;;6.70;42.60;;;;;;5064479;28;20486;-61
2022/11/14 03:32:18;;;;;;;23.60;15.30;;;6.80;42.40;;;;;;5055496;28;20485;-60
2022/11/14 03:34:45;;;;;;;22.67;14.90;;;6.80;42.60;;;;;;5056477;28;20552;-60
2022/11/14 03:37:12;;;;;;;24.37;15.50;;;6.80;42.70;;;;;;5057935;28;20465;-61
2022/11/14 03:39:38;;;;;;;21.77;14.10;;;6.80;42.50;;;;;;5061864;28;20476;-61
2022/11/14 03:42:05;;;;;;;23.63;15.23;;;6.80;42.50;;;;;;5058722;28;20604;-61
2022/11/14 03:44:32;;;;;;;23.93;15.60;;;6.80;42.40;;;;;;5055934;28;20457;-61
2022/11/14 03:47:00;;;;;;;22.80;14.77;;;6.80;42.70;;;;;;5064703;28;20832;-61
2022/11/14 03:49:27;;;;;;;21.40;14.57;;;6.90;42.60;;;;;;5062997;28;20500;-60
2022/11/14 03:51:54;;;;;;;25.70;15.63;;;6.90;42.50;;;;;;5056616;28;20698;-60
2022/11/14 03:54:20;;;;;;;22.43;15.20;;;6.90;42.40;;;;;;5060664;28;20461;-60
2022/11/14 03:56:47;;;;;;;21.10;15.10;;;6.90;42.30;;;;;;5060865;28;20457;-61
2022/11/14 03:59:14;;;;;;;22.97;15.97;;;6.90;42.70;;;;;;5063885;28;20584;-61
2022/11/14 04:01:41;;;;;;;26.10;16.30;;;6.90;42.50;;;;;;5062173;28;20497;-60
2022/11/14 04:04:11;;;;;;;24.27;16.30;;;6.90;42.70;;;;;;5055594;28;20976;-60
2022/11/14 04:06:38;;;;;;;23.30;14.93;;;6.90;42.80;;;;;;5062494;28;20453;-60
2022/11/14 04:09:05;;;;;;;29.33;17.20;;;7.00;42.60;;;;;;5059835;28;20488;-63
2022/11/14 04:11:32;;;;;;;26.00;16.00;;;6.90;42.60;;;;;;5053445;28;20580;-60
2022/11/14 04:13:58;;;;;;;24.53;16.07;;;6.90;42.60;;;;;;5062400;28;20476;-61
2022/11/14 04:16:25;;;;;;;25.93;17.10;;;6.90;42.60;;;;;;5064160;28;20468;-61
2022/11/14 04:18:52;;;;;;;28.97;17.70;;;7.00;42.60;;;;;;5058353;28;20470;-61
2022/11/14 04:21:20;;;;;;;30.27;18.40;;;7.00;42.50;;;;;;5062143;28;20984;-61
2022/11/14 04:23:47;;;;;;;29.20;16.70;;;7.00;42.50;;;;;;5063430;28;20952;-61
2022/11/14 04:26:13;;;;;;;27.60;17.30;;;7.00;42.40;;;;;;5061226;28;20450;-61
2022/11/14 04:28:40;;;;;;;27.43;16.23;;;7.00;42.50;;;;;;5057265;28;20482;-61
2022/11/14 04:31:07;;;;;;;26.33;17.00;;;7.00;42.40;;;;;;5064339;28;20465;-61
2022/11/14 04:33:34;;;;;;;31.77;17.87;;;7.00;42.40;;;;;;5057095;28;20961;-61
2022/11/14 04:36:00;;;;;;;27.57;17.43;;;7.10;42.50;;;;;;5059216;28;21245;-61
2022/11/14 04:38:29;;;;;;;28.90;18.07;;;7.10;42.60;;;;;;5061827;28;20449;-61
2022/11/14 04:40:55;;;;;;;27.33;16.40;;;7.10;42.40;;;;;;5065057;28;20463;-61
2022/11/14 04:43:22;;;;;;;27.40;16.90;;;7.10;42.50;;;;;;5056722;28;20454;-61
2022/11/14 04:45:49;;;;;;;26.03;16.40;;;7.10;42.40;;;;;;5065056;28;20552;-60
2022/11/14 04:48:16;;;;;;;27.37;16.60;;;7.20;42.10;;;;;;5057880;28;20480;-61
2022/11/14 04:50:42;;;;;;;26.60;17.20;;;7.20;42.40;;;;;;5061124;28;20488;-61
2022/11/14 04:53:09;;;;;;;31.80;18.57;;;7.20;42.40;;;;;;5059433;28;20465;-61
2022/11/14 04:55:37;;;;;;;27.53;17.60;;;7.10;42.40;;;;;;5055463;28;20449;-62
2022/11/14 04:58:04;;;;;;;26.60;16.80;;;7.20;42.30;;;;;;5062560;28;20460;-61
2022/11/14 05:00:31;;;;;;;26.47;17.13;;;7.20;42.20;;;;;;5061685;28;20504;-60
2022/11/14 05:02:59;;;;;;;27.10;17.37;;;7.20;42.30;;;;;;5054676;28;20454;-60
2022/11/14 05:05:26;;;;;;;28.20;17.27;;;7.10;43.10;;;;;;5068543;28;20559;-61
2022/11/14 05:07:53;;;;;;;31.83;17.63;;;7.20;42.50;;;;;;5064782;28;20457;-63
2022/11/14 05:10:20;;;;;;;29.80;16.67;;;7.20;42.50;;;;;;5066200;28;20495;-61
2022/11/14 05:12:48;;;;;;;30.30;18.87;;;7.20;42.50;;;;;;5057079;28;20464;-63
2022/11/14 05:15:15;;;;;;;28.33;16.93;;;7.10;42.60;;;;;;5056851;28;20468;-65
2022/11/14 05:17:42;;;;;;;27.83;17.43;;;7.10;42.80;;;;;;5057401;28;20465;-64
2022/11/14 05:20:10;;;;;;;27.63;19.43;;;7.10;43.00;;;;;;5059413;28;20480;-63
2022/11/14 05:22:37;;;;;;;29.93;19.03;;;7.10;43.20;;;;;;5058259;28;20855;-63
2022/11/14 05:25:04;;;;;;;25.60;16.53;;;7.10;43.00;;;;;;5061767;28;20465;-64
2022/11/14 05:27:31;;;;;;;26.13;16.90;;;7.10;43.10;;;;;;5062086;28;20468;-65
2022/11/14 05:30:00;;;;;;;29.83;18.30;;;7.10;43.20;;;;;;5053173;28;20485;-64
2022/11/14 05:32:27;;;;;;;28.90;18.10;;;7.20;43.10;;;;;;5064544;28;20491;-64
2022/11/14 05:34:53;;;;;;;25.37;17.13;;;7.20;43.10;;;;;;5060926;28;20777;-62
2022/11/14 05:37:20;;;;;;;30.07;16.93;;;7.20;43.00;;;;;;5060320;28;20457;-61
2022/11/14 05:39:47;;;;;;;33.40;18.67;;;7.20;43.00;;;;;;5065264;28;20480;-62
2022/11/14 05:42:13;;;;;;;27.37;18.20;;;7.30;43.00;;;;;;5063995;28;20457;-62
2022/11/14 05:44:40;;;;;;;29.33;16.70;;;7.20;42.90;;;;;;5065671;28;20469;-64
2022/11/14 05:47:08;;;;;;;30.03;17.77;;;7.20;43.10;;;;;;5060049;28;20464;-63
2022/11/14 05:49:35;;;;;;;25.97;16.77;;;7.20;43.20;;;;;;5058587;28;20484;-67
2022/11/14 05:52:02;;;;;;;31.70;18.60;;;7.30;43.20;;;;;;5061098;28;20471;-63
2022/11/14 05:54:29;;;;;;;27.00;16.07;;;7.20;43.00;;;;;;5061966;28;20530;-63
2022/11/14 05:56:55;;;;;;;33.03;19.47;;;7.20;43.10;;;;;;5061211;28;20461;-62
2022/11/14 05:59:22;;;;;;;28.93;19.00;;;7.20;43.10;;;;;;5059053;28;20469;-63
2022/11/14 06:01:49;;;;;;;31.70;19.33;;;7.20;43.10;;;;;;5059225;28;20841;-63
2022/11/14 06:04:17;;;;;;;32.80;20.57;;;7.30;43.20;;;;;;5064831;28;20975;-63
2022/11/14 06:06:44;;;;;;;30.90;17.67;;;7.30;43.10;;;;;;5059158;28;20879;-62
2022/11/14 06:09:11;;;;;;;39.90;20.53;;;7.30;43.10;;;;;;5051952;28;21030;-62
2022/11/14 06:11:37;;;;;;;29.83;18.63;;;7.30;43.10;;;;;;5060673;28;20467;-63
2022/11/14 06:14:04;;;;;;;29.90;19.20;;;7.30;43.00;;;;;;5055787;28;20950;-64
2022/11/14 06:16:31;;;;;;;28.67;18.70;;;7.30;43.20;;;;;;5055236;28;20468;-64
2022/11/14 06:18:58;;;;;;;28.70;19.90;;;7.30;43.10;;;;;;5064058;28;20488;-63
2022/11/14 06:21:26;;;;;;;30.87;18.77;;;7.30;43.30;;;;;;5062351;28;20965;-64
2022/11/14 06:23:53;;;;;;;38.33;19.50;;;7.30;43.20;;;;;;5061557;28;20453;-63
2022/11/14 06:26:22;;;;;;;32.77;20.30;;;7.30;43.30;;;;;;5065431;28;21199;-64
2022/11/14 06:28:49;;;;;;;32.67;18.30;;;7.30;43.30;;;;;;5063657;28;21195;-63
2022/11/14 06:31:16;;;;;;;29.83;19.13;;;7.30;43.40;;;;;;5061673;28;20480;-62
2022/11/14 06:33:43;;;;;;;31.53;19.57;;;7.30;43.40;;;;;;5063065;28;20988;-63
2022/11/14 06:36:10;;;;;;;33.33;20.37;;;7.30;44.20;;;;;;5064884;28;20461;-63
2022/11/14 06:38:41;;;;;;;32.53;19.67;;;7.30;43.50;;;;;;5064568;28;20914;-63
2022/11/14 06:41:10;;;;;;;31.20;19.37;;;7.30;43.40;;;;;;5053998;28;20462;-62
2022/11/14 06:43:38;;;;;;;32.07;18.83;;;7.30;43.40;;;;;;5056379;28;20848;-61
2022/11/14 06:46:07;;;;;;;30.30;18.50;;;7.30;43.60;;;;;;5059205;28;20469;-62
2022/11/14 06:48:34;;;;;;;35.27;20.07;;;7.30;43.60;;;;;;5061939;28;20462;-62
2022/11/14 06:51:02;;;;;;;31.83;19.80;;;7.30;43.70;;;;;;5064747;28;20468;-62
2022/11/14 06:53:31;;;;;;;31.47;19.13;;;7.40;43.70;;;;;;5054757;28;20457;-61
2022/11/14 06:56:01;;;;;;;32.20;20.07;;;7.40;43.80;;;;;;5063844;28;20461;-61
2022/11/14 06:58:29;;;;;;;31.17;19.43;;;7.40;43.90;;;;;;5056950;28;20453;-63
2022/11/14 07:00:55;;;;;;;32.53;19.73;;;7.50;43.70;;;;;;5054675;28;20469;-62
2022/11/14 07:03:23;;;;;;;28.40;18.30;;;7.50;43.60;;;;;;5058421;28;20457;-63
2022/11/14 07:05:49;;;;;;;29.00;17.83;;;7.50;43.70;;;;;;5061366;28;20462;-63
2022/11/14 07:08:16;;;;;;;30.47;19.73;;;7.60;43.00;;;;;;5061784;28;20460;-62
2022/11/14 07:10:43;;;;;;;30.03;18.63;;;7.60;43.00;;;;;;5059290;28;20486;-66
2022/11/14 07:13:11;;;;;;;31.33;17.73;;;7.60;43.00;;;;;;5062641;28;20960;-65
2022/11/14 07:15:38;;;;;;;30.13;18.30;;;7.60;42.70;;;;;;5053915;28;20536;-66
2022/11/14 07:18:05;;;;;;;30.80;21.33;;;7.60;42.60;;;;;;5059408;28;20457;-64
2022/11/14 07:20:32;;;;;;;30.00;17.90;;;7.60;42.80;;;;;;5059301;28;20506;-65
2022/11/14 07:22:59;;;;;;;29.60;18.83;;;7.60;42.50;;;;;;5059283;28;20558;-63
2022/11/14 07:25:25;;;;;;;32.37;18.37;;;7.70;42.30;;;;;;5059420;28;20476;-64
2022/11/14 07:27:52;;;;;;;31.13;18.50;;;7.70;42.60;;;;;;5063504;28;20460;-64
2022/11/14 07:30:20;;;;;;;28.87;17.20;;;7.80;40.80;;;;;;5067262;28;20477;-63
2022/11/14 07:32:54;;;;;;;30.87;17.70;;;7.90;40.60;;;;;;5064669;28;20468;-66
2022/11/14 07:35:20;;;;;;;31.00;19.00;;;7.80;41.00;;;;;;5066287;28;20556;-65
2022/11/14 07:37:47;;;;;;;29.37;19.37;;;7.70;41.20;;;;;;5060265;28;20458;-65
2022/11/14 07:40:14;;;;;;;31.30;18.50;;;7.70;41.40;;;;;;5062259;28;20477;-65
2022/11/14 07:42:41;;;;;;;30.03;19.33;;;7.70;41.60;;;;;;5056156;28;20476;-65
2022/11/14 07:45:09;;;;;;;29.33;18.43;;;7.70;41.40;;;;;;5069555;28;20457;-65
2022/11/14 07:47:37;;;;;;;29.40;18.47;;;7.70;41.60;;;;;;5047873;28;20454;-65
2022/11/14 07:50:05;;;;;;;28.20;18.60;;;7.60;41.40;;;;;;5055398;28;20469;-66
2022/11/14 07:52:32;;;;;;;27.80;18.07;;;7.60;41.50;;;;;;5057049;28;20476;-67
2022/11/14 07:54:59;;;;;;;28.33;17.60;;;7.60;41.80;;;;;;5062618;28;20457;-65
2022/11/14 07:57:25;;;;;;;25.77;18.40;;;7.60;42.00;;;;;;5062698;28;20461;-64
2022/11/14 07:59:52;;;;;;;26.70;17.87;;;7.70;42.10;;;;;;5062632;28;21017;-67
2022/11/14 08:02:19;;;;;;;26.40;18.53;;;7.80;41.60;;;;;;5056942;28;20476;-70
2022/11/14 08:04:47;;;;;;;25.60;17.73;;;7.90;41.30;;;;;;5061025;28;20465;-68
2022/11/14 08:07:14;;;;;;;25.87;16.07;;;7.90;41.10;;;;;;5061836;28;20539;-68
2022/11/14 08:09:40;;;;;;;25.13;17.10;;;7.90;41.00;;;;;;5067677;28;20491;-71
2022/11/14 08:12:07;;;;;;;21.10;15.30;;;8.00;40.70;;;;;;5058761;28;21153;-70
2022/11/14 08:14:34;;;;;;;24.73;16.60;;;8.00;40.60;;;;;;5060178;28;20464;-69
2022/11/14 08:17:01;;;;;;;27.43;16.00;;;8.00;40.70;;;;;;5063481;28;20459;-68
2022/11/14 08:19:27;;;;;;;23.37;15.53;;;8.00;40.70;;;;;;5062865;28;20484;-67
2022/11/14 08:21:56;;;;;;;22.47;15.10;;;8.00;40.80;;;;;;5062401;28;20458;-63
2022/11/14 08:24:22;;;;;;;21.90;14.90;;;8.10;40.90;;;;;;5061313;28;20464;-63
2022/11/14 08:26:49;;;;;;;22.90;15.60;;;8.10;40.70;;;;;;5059813;28;20480;-63
2022/11/14 08:29:16;;;;;;;24.20;16.17;;;8.10;40.80;;;;;;5062891;28;20485;-63
2022/11/14 08:31:43;;;;;;;23.57;15.80;;;8.10;41.00;;;;;;5058711;28;20485;-63
2022/11/14 08:34:09;;;;;;;27.13;17.67;;;8.10;40.70;;;;;;5062959;28;20461;-64
2022/11/14 08:36:36;;;;;;;24.10;15.83;;;8.20;40.60;;;;;;5063184;28;20458;-64
2022/11/14 08:39:04;;;;;;;25.17;16.43;;;8.20;40.60;;;;;;5058071;28;21080;-63
2022/11/14 08:41:31;;;;;;;25.23;18.00;;;8.30;40.60;;;;;;5068463;28;20463;-63
2022/11/14 08:43:58;;;;;;;22.80;15.97;;;8.30;40.30;;;;;;5065085;28;20452;-63
2022/11/14 08:46:25;;;;;;;21.90;15.00;;;8.30;40.20;;;;;;5062218;28;20456;-63
2022/11/14 08:48:51;;;;;;;22.87;17.73;;;8.40;40.00;;;;;;5056082;28;20488;-63
2022/11/14 08:51:18;;;;;;;22.20;15.13;;;8.40;39.80;;;;;;5069661;28;21217;-62
2022/11/14 08:53:45;;;;;;;21.33;14.40;;;8.40;39.80;;;;;;5066182;28;20468;-63
2022/11/14 08:56:13;;;;;;;23.07;15.70;;;8.40;39.80;;;;;;5065530;28;20453;-63
2022/11/14 08:58:40;;;;;;;28.23;17.30;;;8.60;39.60;;;;;;5063968;28;20461;-64
2022/11/14 09:01:07;;;;;;;22.10;15.30;;;8.80;39.80;;;;;;5061124;28;20477;-68
2022/11/14 09:03:34;;;;;;;20.50;13.70;;;9.00;38.40;;;;;;5062391;28;20460;-69
2022/11/14 09:06:01;;;;;;;22.00;15.30;;;9.10;38.00;;;;;;5065200;28;20468;-72
2022/11/14 09:08:29;;;;;;;20.40;15.17;;;9.30;37.40;;;;;;5063481;28;21119;-72
2022/11/14 09:10:56;;;;;;;23.90;15.30;;;9.40;37.00;;;;;;5064084;28;20485;-69
2022/11/14 09:13:26;;;;;;;21.63;15.23;;;9.50;37.30;;;;;;5065440;28;20511;-68
2022/11/14 09:15:53;;;;;;;23.23;14.40;;;9.60;36.60;;;;;;5054883;28;20453;-64
2022/11/14 09:18:19;;;;;;;21.40;12.87;;;9.60;36.70;;;;;;5059185;28;20462;-63
2022/11/14 09:20:46;;;;;;;18.33;14.70;;;9.60;36.40;;;;;;5057087;28;20512;-62
2022/11/14 09:23:13;;;;;;;20.80;15.00;;;9.60;36.10;;;;;;5054038;28;20507;-63
2022/11/14 09:25:40;;;;;;;17.50;13.30;;;9.70;36.20;;;;;;5059198;28;20466;-62
2022/11/14 09:28:07;;;;;;;22.53;15.00;;;9.90;36.40;;;;;;5055452;28;20465;-62
2022/11/14 09:30:37;;;;;;;24.60;16.03;;;10.30;36.60;;;;;;5054500;28;20561;-62
2022/11/14 09:33:04;;;;;;;21.00;14.50;;;10.70;36.30;;;;;;5061491;28;20461;-62
2022/11/14 09:35:31;;;;;;;20.47;14.67;;;11.40;35.60;;;;;;5062988;28;21175;-63
2022/11/14 09:38:02;;;;;;;21.07;14.60;;;12.20;34.60;;;;;;5061809;28;21446;-63
2022/11/14 09:40:31;;;;;;;15.87;12.50;;;12.80;32.30;;;;;;5054720;28;20483;-63
2022/11/14 09:43:13;;;;;;;17.23;13.07;;;13.50;31.00;;;;;;5055231;28;21171;-63
2022/11/14 09:45:48;;;;;;;17.50;12.70;;;14.00;29.10;;;;;;5056733;28;21024;-63
2022/11/14 09:48:18;;;;;;;16.63;12.83;;;14.20;28.20;;;;;;5052725;28;20464;-64
2022/11/14 09:50:51;;;;;;;16.87;11.67;;;14.40;27.40;;;;;;5055566;28;20478;-62
2022/11/14 09:53:24;;;;;;;15.47;11.53;;;14.80;26.40;;;;;;5061588;28;20457;-63
2022/11/14 09:55:52;;;;;;;17.63;10.90;;;15.20;24.30;;;;;;5056766;28;20465;-63
2022/11/14 09:58:21;;;;;;;19.67;13.10;;;15.40;23.10;;;;;;5062996;28;20453;-63
2022/11/14 10:00:54;;;;;;;16.00;11.33;;;15.50;22.20;;;;;;5055399;28;20472;-63
2022/11/14 10:03:33;;;;;;;14.27;11.10;;;15.50;21.40;;;;;;5059036;28;20988;-63
2022/11/14 10:06:29;;;;;;;14.33;12.00;;;15.50;20.20;;;;;;5057097;28;20468;-63
2022/11/14 10:09:14;;;;;;;13.43;11.10;;;15.40;20.20;;;;;;4999574;28;20492;-64
2022/11/14 10:11:46;;;;;;;16.00;11.30;;;15.20;19.90;;;;;;5062906;28;20485;-62
2022/11/14 10:14:46;;;;;;;13.20;9.80;;;15.20;21.10;;;;;;5066029;28;20989;-63
2022/11/14 10:17:27;;;;;;;12.80;9.17;;;15.60;20.80;;;;;;5059902;28;20457;-62
2022/11/14 10:19:59;;;;;;;13.00;9.90;;;16.40;20.00;;;;;;5063593;28;21040;-63
2022/11/14 10:22:47;;;;;;;11.60;9.70;;;17.30;18.00;;;;;;5054970;28;20461;-63
2022/11/14 10:25:23;;;;;;;13.87;9.90;;;18.00;17.10;;;;;;5060400;28;20465;-64
2022/11/14 10:28:03;;;;;;;11.43;8.80;;;19.40;15.60;;;;;;5060942;28;20462;-64
2022/11/14 10:30:38;;;;;;;10.53;8.10;;;20.50;13.50;;;;;;5060070;28;20483;-63
2022/11/14 10:33:29;;;;;;;11.57;7.80;;;21.40;10.80;;;;;;5065166;28;20460;-65
2022/11/14 10:36:02;;;;;;;11.37;8.33;;;20.50;10.90;;;;;;5059712;28;20465;-63
2022/11/14 10:38:34;;;;;;;13.00;8.50;;;19.40;11.80;;;;;;5062231;28;20468;-64
2022/11/14 10:41:04;;;;;;;11.27;8.73;;;18.60;12.50;;;;;;5061084;28;20457;-63
2022/11/14 10:43:35;;;;;;;11.93;9.20;;;18.00;13.50;;;;;;5061195;28;20461;-65
2022/11/14 10:46:07;;;;;;;17.83;10.67;;;17.50;14.40;;;;;;5061558;28;20457;-65
2022/11/14 10:48:39;;;;;;;13.10;9.20;;;17.10;15.40;;;;;;5056234;28;20495;-66
2022/11/14 10:51:12;;;;;;;11.53;8.57;;;16.70;16.40;;;;;;5058708;28;20473;-65
2022/11/14 10:53:48;;;;;;;12.20;8.87;;;16.60;17.20;;;;;;5057888;28;20514;-67
2022/11/14 10:56:15;;;;;;;10.90;6.97;;;17.20;17.60;;;;;;5062425;28;22147;-63
2022/11/14 10:58:41;;;;;;;9.03;6.17;;;17.20;16.70;;;;;;5055643;28;20466;-63
2022/11/14 11:01:34;;;;;;;8.90;6.27;;;16.90;16.70;;;;;;5059770;28;20495;-71
2022/11/14 11:04:14;;;;;;;13.53;6.70;;;16.60;17.20;;;;;;5060584;28;20503;-67
2022/11/14 11:06:41;;;;;;;17.13;6.60;;;16.20;17.70;;;;;;5057257;28;20466;-68
2022/11/14 11:12:00;;;;;;;9.90;5.53;;;15.60;19.60;;;;;;5070328;28;20542;-64
2022/11/14 11:14:27;;;;;;;7.47;4.47;;;15.30;20.30;;;;;;5059186;28;21251;-64
2022/11/14 11:17:08;;;;;;;7.83;4.70;;;15.00;20.00;;;;;;5061578;28;20461;-64
2022/11/14 11:19:37;;;;;;;9.10;5.00;;;14.80;21.30;;;;;;5058834;28;20491;-65
2022/11/14 11:22:05;;;;;;;6.70;4.00;;;14.60;22.10;;;;;;5062929;28;20976;-65
2022/11/14 11:24:34;;;;;;;7.80;4.20;;;14.30;23.20;;;;;;5064326;28;20453;-67
2022/11/14 11:27:14;;;;;;;6.53;3.43;;;14.10;23.80;;;;;;5056507;28;20831;-65
2022/11/14 11:29:41;;;;;;;6.87;3.13;;;13.90;23.80;;;;;;5063289;28;20531;-65
2022/11/14 11:32:08;;;;;;;5.07;2.33;;;13.80;24.60;;;;;;5061863;28;20528;-65
2022/11/14 11:34:36;;;;;;;7.20;2.90;;;13.70;25.10;;;;;;5064701;28;20461;-65
2022/11/14 11:37:13;;;;;;;6.33;2.70;;;13.60;25.70;;;;;;5061249;28;20457;-63
2022/11/14 11:39:45;;;;;;;5.83;2.97;;;13.60;25.50;;;;;;5059360;28;20516;-65
2022/11/14 11:42:16;;;;;;;9.03;2.63;;;13.50;26.20;;;;;;5059836;28;20465;-64
2022/11/14 11:44:46;;;;;;;5.47;2.30;;;13.50;26.60;;;;;;5059438;28;20461;-65
2022/11/14 11:47:16;;;;;;;6.70;2.60;;;13.50;26.20;;;;;;5056853;28;20458;-65
2022/11/14 11:49:46;;;;;;;5.77;2.40;;;13.70;25.80;;;;;;5061290;28;20473;-66
2022/11/14 11:52:19;;;;;;;4.77;1.80;;;13.70;25.30;;;;;;5058893;28;20473;-66
2022/11/14 11:55:00;;;;;;;4.60;1.93;;;13.70;24.70;;;;;;5061043;28;20469;-61
2022/11/14 11:57:33;;;;;;;5.23;1.90;;;13.60;24.90;;;;;;5058633;28;20483;-61
2022/11/14 12:00:06;;;;;;;4.33;1.63;;;13.60;25.30;;;;;;5055404;28;20909;-62
2022/11/14 12:02:33;;;;;;;5.03;2.10;;;13.60;25.70;;;;;;5060002;28;20473;-62
2022/11/14 12:05:01;;;;;;;5.37;2.00;;;13.60;25.50;;;;;;5057823;28;20552;-64
2022/11/14 12:07:38;;;;;;;5.50;1.73;;;13.60;25.20;;;;;;5048874;28;20461;-63
2022/11/14 12:10:14;;;;;;;4.10;1.60;;;13.70;25.30;;;;;;5054401;28;20484;-65
2022/11/14 12:13:02;;;;;;;4.63;1.20;;;13.70;25.30;;;;;;5067275;28;20465;-63
2022/11/14 12:15:38;;;;;;;5.20;1.90;;;13.80;24.70;;;;;;5045059;28;20477;-65
2022/11/14 12:18:26;;;;;;;3.47;1.03;;;13.80;24.40;;;;;;5048549;28;20465;-65
2022/11/14 12:21:11;;;;;;;3.77;1.00;;;13.70;23.90;;;;;;5054329;28;20489;-63
2022/11/14 12:24:13;;;;;;;4.37;1.33;;;13.70;24.60;;;;;;5053467;28;20484;-64
2022/11/14 12:27:01;;;;;;;3.87;1.37;;;13.60;24.80;;;;;;5019337;28;20848;-63
2022/11/14 12:29:51;;;;;;;4.10;1.43;;;13.50;25.10;;;;;;5056451;28;20477;-66
2022/11/14 12:32:26;;;;;;;3.83;1.30;;;13.40;25.80;;;;;;5056875;28;20489;-64
2022/11/14 12:34:53;;;;;;;3.90;1.40;;;13.50;26.10;;;;;;5051920;28;20457;-61
2022/11/14 12:37:26;;;;;;;4.30;1.60;;;13.50;26.40;;;;;;5056206;28;20457;-61
2022/11/14 12:39:59;;;;;;;5.97;2.17;;;13.60;26.80;;;;;;5053871;28;20482;-63
2022/11/14 12:42:25;;;;;;;3.67;1.00;;;13.60;26.80;;;;;;5058192;28;20457;-61
2022/11/14 12:44:52;;;;;;;3.83;1.10;;;13.70;26.00;;;;;;5062570;28;20464;-61
2022/11/14 12:47:21;;;;;;;6.97;3.60;;;13.70;26.20;;;;;;5060962;28;20472;-61
2022/11/14 12:50:25;;;;;;;4.80;1.47;;;13.70;26.30;;;;;;5057082;28;20561;-61